createdAt,value
2018-09-18T00:01:04.052Z,764
2018-09-18T00:02:11.261Z,765
2018-09-18T00:03:18.467Z,763
2018-09-18T00:04:25.682Z,765
2018-09-18T00:05:32.900Z,764
2018-09-18T00:06:40.104Z,764
2018-09-18T00:07:47.324Z,765
2018-09-18T00:08:54.530Z,765
2018-09-18T00:10:01.894Z,765
2018-09-18T00:11:09.112Z,764
2018-09-18T00:12:16.317Z,763
2018-09-18T00:13:23.530Z,764
2018-09-18T00:14:30.739Z,764
2018-09-18T00:15:37.948Z,766
2018-09-18T00:16:45.159Z,764
2018-09-18T00:17:52.372Z,764
2018-09-18T00:18:59.608Z,763
2018-09-18T00:20:06.818Z,763
2018-09-18T00:21:14.240Z,764
2018-09-18T00:22:21.178Z,765
2018-09-18T00:23:28.389Z,764
2018-09-18T00:24:35.604Z,764
2018-09-18T00:25:42.814Z,765
2018-09-18T00:26:50.029Z,764
2018-09-18T00:27:57.244Z,766
2018-09-18T00:29:04.458Z,764
2018-09-18T00:30:11.391Z,763
2018-09-18T00:31:18.336Z,765
2018-09-18T00:32:25.545Z,765
2018-09-18T00:33:32.768Z,764
2018-09-18T00:34:39.980Z,764
2018-09-18T00:35:47.191Z,766
2018-09-18T00:36:54.399Z,761
2018-09-18T00:38:01.345Z,763
2018-09-18T00:39:08.289Z,762
2018-09-18T00:40:15.500Z,761
2018-09-18T00:41:22.712Z,761
2018-09-18T00:42:29.923Z,760
2018-09-18T00:43:37.135Z,762
2018-09-18T00:44:44.347Z,762
2018-09-18T00:45:51.561Z,761
2018-09-18T00:46:58.498Z,761
2018-09-18T00:48:05.710Z,762
2018-09-18T00:49:12.918Z,762
2018-09-18T00:50:20.130Z,763
2018-09-18T00:51:27.339Z,764
2018-09-18T00:52:34.551Z,762
2018-09-18T00:53:41.771Z,762
2018-09-18T00:54:48.977Z,763
2018-09-18T00:55:56.187Z,763
2018-09-18T00:57:03.397Z,763
2018-09-18T00:58:10.605Z,765
2018-09-18T00:59:17.827Z,766
2018-09-18T01:00:25.033Z,763
2018-09-18T01:01:31.963Z,765
2018-09-18T01:02:39.175Z,766
2018-09-18T01:03:46.389Z,764
2018-09-18T01:04:53.601Z,765
2018-09-18T01:06:00.810Z,764
2018-09-18T01:07:08.018Z,764
2018-09-18T01:08:15.228Z,765
2018-09-18T01:09:22.163Z,765
2018-09-18T01:10:29.383Z,764
2018-09-18T01:11:36.592Z,763
2018-09-18T01:12:43.802Z,763
2018-09-18T01:13:51.012Z,763
2018-09-18T01:14:58.221Z,762
2018-09-18T01:16:05.425Z,761
2018-09-18T01:17:12.635Z,761
2018-09-18T01:18:19.842Z,762
2018-09-18T01:19:26.778Z,762
2018-09-18T01:20:33.986Z,762
2018-09-18T01:21:41.195Z,761
2018-09-18T01:22:48.403Z,762
2018-09-18T01:23:55.620Z,762
2018-09-18T01:25:02.827Z,762
2018-09-18T01:26:10.045Z,762
2018-09-18T01:27:16.988Z,765
2018-09-18T01:28:24.207Z,764
2018-09-18T01:29:31.418Z,764
2018-09-18T01:30:38.637Z,764
2018-09-18T01:31:45.846Z,764
2018-09-18T01:32:53.057Z,763
2018-09-18T01:34:00.266Z,764
2018-09-18T01:35:07.479Z,764
2018-09-18T01:36:14.688Z,764
2018-09-18T01:37:21.896Z,764
2018-09-18T01:38:29.107Z,764
2018-09-18T01:39:36.042Z,763
2018-09-18T01:40:42.985Z,764
2018-09-18T01:41:50.187Z,763
2018-09-18T01:42:57.093Z,763
2018-09-18T01:44:04.033Z,764
2018-09-18T01:45:10.964Z,763
2018-09-18T01:46:18.185Z,764
2018-09-18T01:47:25.402Z,764
2018-09-18T01:48:32.614Z,764
2018-09-18T01:49:39.820Z,764
2018-09-18T01:50:47.035Z,766
2018-09-18T01:51:53.974Z,766
2018-09-18T01:53:01.184Z,765
2018-09-18T01:54:08.396Z,765
2018-09-18T01:55:15.609Z,764
2018-09-18T01:56:22.824Z,765
2018-09-18T01:57:29.763Z,765
2018-09-18T01:58:36.705Z,764
2018-09-18T01:59:43.920Z,765
2018-09-18T02:00:51.136Z,765
2018-09-18T02:01:58.070Z,765
2018-09-18T02:03:05.279Z,766
2018-09-18T02:04:12.491Z,766
2018-09-18T02:05:19.702Z,766
2018-09-18T02:06:26.918Z,768
2018-09-18T02:07:33.854Z,765
2018-09-18T02:08:41.065Z,766
2018-09-18T02:09:48.277Z,766
2018-09-18T02:10:55.492Z,765
2018-09-18T02:12:02.708Z,765
2018-09-18T02:13:09.922Z,765
2018-09-18T02:14:17.348Z,764
2018-09-18T02:15:24.558Z,764
2018-09-18T02:16:31.499Z,765
2018-09-18T02:17:38.711Z,764
2018-09-18T02:18:45.925Z,764
2018-09-18T02:19:53.134Z,764
2018-09-18T02:21:00.342Z,764
2018-09-18T02:22:07.555Z,763
2018-09-18T02:23:14.768Z,764
2018-09-18T02:24:21.981Z,765
2018-09-18T02:25:28.911Z,765
2018-09-18T02:26:36.134Z,765
2018-09-18T02:27:43.338Z,765
2018-09-18T02:28:50.554Z,766
2018-09-18T02:29:57.770Z,766
2018-09-18T02:31:04.978Z,765
2018-09-18T02:32:11.900Z,766
2018-09-18T02:33:19.113Z,766
2018-09-18T02:34:26.326Z,765
2018-09-18T02:35:33.532Z,767
2018-09-18T02:36:40.750Z,765
2018-09-18T02:37:47.953Z,766
2018-09-18T02:38:54.883Z,767
2018-09-18T02:40:02.094Z,767
2018-09-18T02:41:09.304Z,766
2018-09-18T02:42:16.518Z,768
2018-09-18T02:43:23.716Z,766
2018-09-18T02:44:30.924Z,766
2018-09-18T02:45:38.135Z,766
2018-09-18T02:46:45.068Z,767
2018-09-18T02:47:52.278Z,765
2018-09-18T02:48:59.490Z,765
2018-09-18T02:50:06.705Z,767
2018-09-18T02:51:13.927Z,765
2018-09-18T02:52:21.152Z,767
2018-09-18T02:53:28.365Z,768
2018-09-18T02:54:35.581Z,768
2018-09-18T02:55:42.797Z,767
2018-09-18T02:56:50.011Z,767
2018-09-18T02:57:57.224Z,767
2018-09-18T02:59:04.160Z,768
2018-09-18T03:00:11.092Z,768
2018-09-18T03:01:18.304Z,769
2018-09-18T03:02:25.518Z,768
2018-09-18T03:03:32.740Z,767
2018-09-18T03:04:39.683Z,766
2018-09-18T03:05:46.904Z,768
2018-09-18T03:06:54.116Z,768
2018-09-18T03:08:01.343Z,766
2018-09-18T03:09:08.547Z,767
2018-09-18T03:10:15.481Z,768
2018-09-18T03:11:23.042Z,768
2018-09-18T03:12:30.382Z,768
2018-09-18T03:13:37.595Z,769
2018-09-18T03:14:44.807Z,770
2018-09-18T03:15:51.741Z,769
2018-09-18T03:16:58.953Z,769
2018-09-18T03:18:06.165Z,769
2018-09-18T03:19:13.377Z,770
2018-09-18T03:20:20.586Z,768
2018-09-18T03:21:27.804Z,768
2018-09-18T03:22:35.010Z,769
2018-09-18T03:23:42.219Z,769
2018-09-18T03:24:49.422Z,770
2018-09-18T03:25:56.630Z,767
2018-09-18T03:27:03.846Z,768
2018-09-18T03:28:11.052Z,768
2018-09-18T03:29:17.989Z,768
2018-09-18T03:30:25.195Z,768
2018-09-18T03:31:32.417Z,768
2018-09-18T03:32:39.342Z,768
2018-09-18T03:33:46.286Z,768
2018-09-18T03:34:53.498Z,768
2018-09-18T03:36:00.441Z,768
2018-09-18T03:37:07.654Z,769
2018-09-18T03:38:14.862Z,769
2018-09-18T03:39:22.076Z,769
2018-09-18T03:40:29.280Z,771
2018-09-18T03:41:36.494Z,771
2018-09-18T03:42:43.711Z,768
2018-09-18T03:43:50.916Z,770
2018-09-18T03:44:58.127Z,769
2018-09-18T03:46:05.341Z,771
2018-09-18T03:47:12.555Z,770
2018-09-18T03:48:19.767Z,771
2018-09-18T03:49:26.973Z,771
2018-09-18T03:50:34.188Z,770
2018-09-18T03:51:41.395Z,770
2018-09-18T03:52:48.605Z,769
2018-09-18T03:53:55.814Z,770
2018-09-18T03:55:02.778Z,770
2018-09-18T03:56:09.708Z,770
2018-09-18T03:57:16.651Z,771
2018-09-18T03:58:23.862Z,769
2018-09-18T03:59:30.813Z,770
2018-09-18T04:00:38.026Z,770
2018-09-18T04:01:45.230Z,769
2018-09-18T04:02:52.477Z,767
2018-09-18T04:03:59.849Z,768
2018-09-18T04:05:07.060Z,768
2018-09-18T04:06:14.272Z,769
2018-09-18T04:07:21.484Z,768
2018-09-18T04:08:28.705Z,768
2018-09-18T04:09:35.920Z,768
2018-09-18T04:10:43.181Z,768
2018-09-18T04:11:50.391Z,768
2018-09-18T04:12:57.331Z,769
2018-09-18T04:14:04.543Z,769
2018-09-18T04:15:11.755Z,768
2018-09-18T04:16:18.972Z,769
2018-09-18T04:17:26.251Z,768
2018-09-18T04:18:33.630Z,768
2018-09-18T04:19:40.847Z,767
2018-09-18T04:20:47.825Z,768
2018-09-18T04:21:55.055Z,769
2018-09-18T04:23:02.270Z,768
2018-09-18T04:24:09.483Z,768
2018-09-18T04:25:16.693Z,768
2018-09-18T04:26:23.626Z,768
2018-09-18T04:27:30.562Z,768
2018-09-18T04:28:37.768Z,768
2018-09-18T04:29:44.980Z,768
2018-09-18T04:30:52.191Z,768
2018-09-18T04:31:59.408Z,769
2018-09-18T04:33:06.614Z,768
2018-09-18T04:34:13.820Z,769
2018-09-18T04:35:21.026Z,769
2018-09-18T04:36:28.234Z,769
2018-09-18T04:37:35.443Z,769
2018-09-18T04:38:42.647Z,770
2018-09-18T04:39:49.864Z,771
2018-09-18T04:40:57.074Z,769
2018-09-18T04:42:04.287Z,769
2018-09-18T04:43:11.503Z,768
2018-09-18T04:44:18.435Z,770
2018-09-18T04:45:25.650Z,770
2018-09-18T04:46:32.591Z,771
2018-09-18T04:47:39.807Z,770
2018-09-18T04:48:47.029Z,770
2018-09-18T04:49:54.241Z,771
2018-09-18T04:51:01.448Z,770
2018-09-18T04:52:08.657Z,770
2018-09-18T04:53:15.868Z,768
2018-09-18T04:54:23.130Z,770
2018-09-18T04:55:30.073Z,771
2018-09-18T04:56:37.279Z,769
2018-09-18T04:57:44.487Z,770
2018-09-18T04:58:51.696Z,770
2018-09-18T04:59:58.911Z,769
2018-09-18T05:01:05.844Z,767
2018-09-18T05:02:13.564Z,769
2018-09-18T05:03:20.885Z,768
2018-09-18T05:04:28.097Z,768
2018-09-18T05:05:35.296Z,768
2018-09-18T05:06:42.501Z,768
2018-09-18T05:07:49.711Z,768
2018-09-18T05:08:56.917Z,768
2018-09-18T05:10:04.123Z,769
2018-09-18T05:11:11.330Z,769
2018-09-18T05:12:18.540Z,768
2018-09-18T05:13:25.745Z,768
2018-09-18T05:14:32.956Z,769
2018-09-18T05:15:40.164Z,769
2018-09-18T05:16:47.387Z,769
2018-09-18T05:17:54.593Z,769
2018-09-18T05:19:01.804Z,770
2018-09-18T05:20:09.012Z,769
2018-09-18T05:21:16.225Z,769
2018-09-18T05:22:23.436Z,768
2018-09-18T05:23:30.655Z,768
2018-09-18T05:24:37.590Z,770
2018-09-18T05:25:44.802Z,769
2018-09-18T05:26:52.012Z,768
2018-09-18T05:27:59.226Z,768
2018-09-18T05:29:06.435Z,768
2018-09-18T05:30:13.644Z,768
2018-09-18T05:31:20.587Z,768
2018-09-18T05:32:27.791Z,767
2018-09-18T22:00:06.926Z,745
2018-09-18T22:01:14.272Z,746
2018-09-18T22:02:21.524Z,745
2018-09-18T22:03:28.472Z,746
2018-09-18T22:04:35.725Z,746
2018-09-18T22:05:42.967Z,745
2018-09-18T22:06:50.347Z,745
2018-09-18T22:07:57.569Z,745
2018-09-18T22:09:04.787Z,745
2018-09-18T22:10:11.999Z,745
2018-09-18T22:11:19.210Z,744
2018-09-18T22:12:26.610Z,744
2018-09-18T22:13:33.901Z,744
2018-09-18T22:14:41.120Z,743
2018-09-18T22:15:48.329Z,744
2018-09-18T22:16:55.557Z,744
2018-09-18T22:18:02.770Z,744
2018-09-18T22:19:10.001Z,744
2018-09-18T22:20:17.251Z,744
2018-09-18T22:21:24.188Z,744
2018-09-18T22:22:31.156Z,745
2018-09-18T22:23:38.391Z,746
2018-09-18T22:24:45.613Z,745
2018-09-18T22:25:52.830Z,745
2018-09-18T22:27:00.049Z,744
2018-09-18T22:28:07.259Z,745
2018-09-18T22:29:14.471Z,745
2018-09-18T22:30:21.463Z,746
2018-09-18T22:31:28.673Z,745
2018-09-18T22:32:35.894Z,745
2018-09-18T22:33:42.849Z,745
2018-09-18T22:34:50.066Z,746
2018-09-18T22:35:57.278Z,746
2018-09-18T22:37:04.489Z,745
2018-09-18T22:38:11.708Z,746
2018-09-18T22:39:18.920Z,745
2018-09-18T22:40:26.135Z,746
2018-09-18T22:41:33.081Z,747
2018-09-18T22:42:40.305Z,746
2018-09-18T22:43:47.516Z,745
2018-09-18T22:44:54.733Z,746
2018-09-18T22:46:01.951Z,745
2018-09-18T22:47:09.185Z,744
2018-09-18T22:48:16.386Z,745
2018-09-18T22:49:23.606Z,744
2018-09-18T22:50:30.889Z,744
2018-09-18T22:51:38.098Z,744
2018-09-18T22:52:45.346Z,744
2018-09-18T22:53:52.562Z,744
2018-09-18T22:54:59.503Z,743
2018-09-18T22:56:06.714Z,744
2018-09-18T22:57:13.714Z,744
2018-09-18T22:58:20.938Z,744
2018-09-18T22:59:28.162Z,744
2018-09-18T23:00:35.377Z,746
2018-09-18T23:01:42.590Z,744
2018-09-18T23:02:49.809Z,745
2018-09-18T23:03:57.023Z,745
2018-09-18T23:05:04.239Z,745
2018-09-18T23:06:11.498Z,744
2018-09-18T23:07:18.713Z,745
2018-09-18T23:08:25.933Z,743
2018-09-18T23:09:33.146Z,744
2018-09-18T23:10:40.361Z,744
2018-09-18T23:11:47.578Z,742
2018-09-18T23:12:54.795Z,744
2018-09-18T23:14:02.009Z,744
2018-09-18T23:15:08.950Z,743
2018-09-18T23:16:16.170Z,744
2018-09-18T23:17:23.389Z,746
2018-09-18T23:18:30.598Z,744
2018-09-18T23:19:37.818Z,745
2018-09-18T23:20:45.037Z,745
2018-09-18T23:21:51.974Z,745
2018-09-18T23:22:59.185Z,746
2018-09-18T23:24:06.400Z,745
2018-09-18T23:25:13.617Z,745
2018-09-18T23:26:20.831Z,744
2018-09-18T23:27:28.054Z,743
2018-09-18T23:28:35.255Z,745
2018-09-18T23:29:42.479Z,744
2018-09-18T23:30:49.696Z,745
2018-09-18T23:31:56.908Z,746
2018-09-18T23:33:04.119Z,744
2018-09-18T23:34:11.330Z,745
2018-09-18T23:35:18.269Z,746
2018-09-18T23:36:25.498Z,745
2018-09-18T23:37:32.712Z,745
2018-09-18T23:38:39.976Z,744
2018-09-18T23:39:46.924Z,745
2018-09-18T23:40:53.891Z,745
2018-09-18T23:42:01.281Z,745
2018-09-18T23:43:08.530Z,745
2018-09-18T23:44:15.464Z,745
2018-09-18T23:45:22.679Z,746
2018-09-18T23:46:29.920Z,745
2018-09-18T23:47:37.137Z,746
2018-09-18T23:48:44.350Z,745
2018-09-18T23:49:51.565Z,746
2018-09-18T23:50:58.777Z,746
2018-09-18T23:52:05.994Z,745
2018-09-18T23:53:13.210Z,745
2018-09-18T23:54:20.418Z,745
2018-09-18T23:55:27.650Z,744
2018-09-18T23:56:34.851Z,745
2018-09-18T23:57:42.071Z,743
2018-09-18T23:58:49.282Z,745
2018-09-18T23:59:56.535Z,745
